createdAt,value
2019-01-21T00:00:48.896Z,78064.02
2019-01-21T00:03:14.990Z,78068.03
2019-01-21T00:05:40.858Z,78074.04
2019-01-21T00:08:06.791Z,78074.04
2019-01-21T00:10:32.781Z,78077.05
2019-01-21T00:12:58.680Z,78070.03
2019-01-21T00:15:24.577Z,78071.03
2019-01-21T00:17:50.482Z,78068.03
2019-01-21T00:20:16.360Z,78066.03
2019-01-21T00:22:42.270Z,78070.03
2019-01-21T00:25:08.215Z,78067.03
2019-01-21T00:27:34.160Z,78066.03
2019-01-21T00:30:00.224Z,78070.03
2019-01-21T00:32:26.111Z,78067.03
2019-01-21T00:34:52.341Z,78065.03
2019-01-21T00:37:18.324Z,78059.02
2019-01-21T00:39:44.220Z,78056.02
2019-01-21T00:42:10.451Z,78060.02
2019-01-21T00:44:36.388Z,78068.03
2019-01-21T00:47:02.324Z,78069.03
2019-01-21T00:49:28.531Z,78059.02
2019-01-21T00:51:54.902Z,78064.02
2019-01-21T00:54:22.728Z,78060.02
2019-01-21T00:56:48.635Z,78056.02
2019-01-21T00:59:14.533Z,78062.02
2019-01-21T01:01:40.453Z,78064.02
2019-01-21T01:04:06.347Z,78062.02
2019-01-21T01:06:32.258Z,78061.02
2019-01-21T01:08:58.166Z,78061.02
2019-01-21T01:11:24.111Z,78063.02
2019-01-21T01:13:50.014Z,78061.02
2019-01-21T01:16:15.926Z,78066.03
2019-01-21T01:18:41.830Z,78070.03
2019-01-21T01:21:08.087Z,78069.03
2019-01-21T01:23:33.984Z,78068.03
2019-01-21T01:25:59.951Z,78067.03
2019-01-21T01:28:25.844Z,78063.02
2019-01-21T01:30:51.793Z,78064.02
2019-01-21T01:33:17.699Z,78072.03
2019-01-21T01:35:43.592Z,78074.04
2019-01-21T01:38:09.542Z,78078.05
2019-01-21T01:40:36.015Z,78068.03
2019-01-21T01:43:02.233Z,78070.03
2019-01-21T01:45:28.143Z,78069.03
2019-01-21T01:47:58.103Z,78074.04
2019-01-21T01:50:24.009Z,78076.04
2019-01-21T01:52:49.917Z,78079.05
2019-01-21T01:55:15.822Z,78073.03
2019-01-21T01:57:41.718Z,78076.04
2019-01-21T02:00:11.790Z,78071.03
2019-01-21T02:02:37.694Z,78074.04
2019-01-21T02:05:03.937Z,78070.03
2019-01-21T02:07:29.837Z,78074.04
2019-01-21T02:09:55.743Z,78077.05
2019-01-21T02:12:21.668Z,78074.04
2019-01-21T02:14:47.576Z,78072.03
2019-01-21T02:17:13.871Z,78071.03
2019-01-21T02:19:40.654Z,78071.03
2019-01-21T02:22:06.555Z,78074.04
2019-01-21T02:24:32.552Z,78073.03
2019-01-21T02:27:00.165Z,78076.04
2019-01-21T02:29:31.040Z,78076.04
2019-01-21T02:32:11.896Z,78074.04
2019-01-21T02:34:42.570Z,78072.03
2019-01-21T02:37:22.766Z,78079.05
2019-01-21T02:40:02.444Z,78074.04
2019-01-21T02:42:32.993Z,78068.03
2019-01-21T02:45:06.966Z,78066.03
2019-01-21T02:47:34.772Z,78060.02
2019-01-21T02:50:05.621Z,78061.02
2019-01-21T02:52:45.509Z,78071.03
2019-01-21T02:55:25.508Z,78071.03
2019-01-21T02:57:59.088Z,78060.02
2019-01-21T03:00:29.659Z,78066.03
2019-01-21T03:03:00.429Z,78066.03
2019-01-21T03:05:28.288Z,78071.03
2019-01-21T03:08:14.528Z,78071.03
2019-01-21T03:10:48.519Z,78076.04
2019-01-21T03:13:26.048Z,78076.04
2019-01-21T03:16:02.972Z,78070.03
2019-01-21T03:18:33.587Z,78065.03
2019-01-21T03:21:13.405Z,78056.02
2019-01-21T03:23:41.215Z,78053.02
2019-01-21T03:26:09.010Z,78059.02
2019-01-21T03:28:43.190Z,78068.03
2019-01-21T03:31:19.848Z,78068.03
2019-01-21T03:33:59.700Z,78065.03
2019-01-21T03:36:30.632Z,78063.02
2019-01-21T03:38:58.481Z,78057.02
2019-01-21T03:41:32.526Z,78055.02
2019-01-21T03:44:06.132Z,78054.02
2019-01-21T03:46:33.977Z,78057.02
2019-01-21T03:49:05.085Z,78059.02
2019-01-21T03:51:41.951Z,78059.02
2019-01-21T03:54:09.755Z,78058.02
2019-01-21T03:56:39.331Z,78055.02
2019-01-21T03:59:19.205Z,78055.02
2019-01-21T04:02:04.057Z,78062.02
2019-01-21T04:04:37.646Z,78062.02
2019-01-21T04:07:05.816Z,78056.02
2019-01-21T04:09:36.609Z,78057.02
2019-01-21T04:12:16.422Z,78059.02
2019-01-21T04:15:00.908Z,78060.02
2019-01-21T04:17:37.638Z,78061.02
2019-01-21T04:20:14.564Z,78062.02
2019-01-21T04:22:57.449Z,78063.02
2019-01-21T04:25:28.019Z,78054.02
2019-01-21T04:28:01.567Z,78051.01
2019-01-21T04:30:29.370Z,78053.02
2019-01-21T04:32:57.170Z,78051.01
2019-01-21T04:35:41.677Z,78062.02
2019-01-21T04:38:18.858Z,78060.02
2019-01-21T04:40:46.660Z,78052.02
2019-01-21T04:43:22.057Z,78058.02
2019-01-21T04:45:55.820Z,78054.02
2019-01-21T04:48:32.937Z,78043.00
2019-01-21T04:50:56.383Z,78051.01
2019-01-21T04:53:30.037Z,78051.01
2019-01-21T04:56:10.597Z,78046.00
2019-01-21T04:58:47.436Z,78044.00
2019-01-21T05:01:24.085Z,78050.01
2019-01-21T05:03:58.382Z,78055.02
2019-01-21T05:06:26.329Z,78057.02
2019-01-21T05:08:56.908Z,78054.02
2019-01-21T05:11:30.797Z,78055.02
2019-01-21T05:14:04.733Z,78052.02
2019-01-21T05:16:32.531Z,78053.02
2019-01-21T05:19:06.432Z,78056.02
2019-01-21T05:21:49.375Z,78053.02
2019-01-21T05:24:20.190Z,78049.01
2019-01-21T05:26:53.805Z,78044.00
2019-01-21T05:29:34.056Z,78038.00
2019-01-21T05:32:01.863Z,78031.98
2019-01-21T05:34:38.710Z,78043.00
2019-01-21T05:37:06.555Z,78040.00
2019-01-21T05:39:37.760Z,78043.00
2019-01-21T05:42:08.429Z,78038.00
2019-01-21T05:44:36.253Z,78035.99
2019-01-21T05:47:06.956Z,78035.99
2019-01-21T05:49:37.624Z,78038.00
2019-01-21T05:52:17.772Z,78039.00
2019-01-21T05:55:02.177Z,78039.00
2019-01-21T05:57:39.140Z,78041.00
2019-01-21T06:00:06.943Z,78044.00
2019-01-21T06:02:37.769Z,78038.00
2019-01-21T06:05:14.412Z,78044.00
2019-01-21T06:07:45.290Z,78040.00
2019-01-21T06:10:29.783Z,78041.00
2019-01-21T06:13:15.879Z,78038.00
2019-01-21T06:15:46.873Z,78039.00
2019-01-21T06:18:33.428Z,78041.00
2019-01-21T06:21:18.189Z,78040.00
2019-01-21T06:23:55.140Z,78045.00
2019-01-21T06:26:35.101Z,78046.00
2019-01-21T06:29:05.666Z,78046.00
2019-01-21T06:31:45.557Z,78050.01
2019-01-21T06:34:13.366Z,78051.01
2019-01-21T06:36:44.412Z,78054.02
2019-01-21T06:39:30.773Z,78056.02
2019-01-21T06:42:04.812Z,78050.01
2019-01-21T06:44:32.633Z,78055.02
2019-01-21T06:47:12.729Z,78061.02
2019-01-21T06:49:40.550Z,78062.02
2019-01-21T06:52:22.645Z,78068.03
2019-01-21T06:54:50.264Z,78064.02
2019-01-21T06:57:34.553Z,78063.02
2019-01-21T07:00:19.347Z,78068.03
2019-01-21T07:02:53.146Z,78068.03
2019-01-21T07:05:29.887Z,78076.04
2019-01-21T07:08:15.824Z,78071.03
2019-01-21T07:10:43.629Z,78072.03
2019-01-21T07:13:14.391Z,78067.03
2019-01-21T07:15:54.306Z,78071.03
2019-01-21T07:18:26.070Z,78068.03
2019-01-21T07:20:56.167Z,78066.03
2019-01-21T07:23:24.302Z,78063.02
2019-01-21T07:25:52.168Z,78067.03
2019-01-21T07:28:19.962Z,78065.03
2019-01-21T07:31:00.143Z,78063.02
2019-01-21T07:33:28.023Z,78065.03
2019-01-21T07:35:58.648Z,78058.02
2019-01-21T07:38:29.388Z,78066.03
2019-01-21T07:41:02.991Z,78064.02
2019-01-21T07:43:30.804Z,78070.03
2019-01-21T07:46:01.366Z,78074.04
2019-01-21T07:48:29.165Z,78077.05
2019-01-21T07:51:06.248Z,78079.05
2019-01-21T07:53:37.318Z,78074.04
2019-01-21T07:56:22.030Z,78080.05
2019-01-21T07:58:58.692Z,78084.05
2019-01-21T08:01:29.280Z,78082.05
2019-01-21T08:04:06.172Z,78086.05
2019-01-21T08:06:35.033Z,78094.06
2019-01-21T08:09:03.872Z,78085.05
2019-01-21T08:11:31.677Z,78084.05
2019-01-21T08:14:05.278Z,78084.05
2019-01-21T08:16:33.075Z,78081.05
2019-01-21T08:19:01.285Z,78079.05
2019-01-21T08:21:31.883Z,78078.05
2019-01-21T08:24:16.261Z,78071.03
2019-01-21T08:27:00.623Z,78075.04
2019-01-21T08:29:28.466Z,78074.04
2019-01-21T08:31:56.275Z,78071.03
2019-01-21T08:34:36.003Z,78063.02
2019-01-21T08:37:07.045Z,78059.02
2019-01-21T08:39:37.630Z,78063.02
2019-01-21T08:42:08.544Z,78075.04
2019-01-21T08:44:45.423Z,78075.04
2019-01-21T08:47:25.341Z,78078.05
2019-01-21T08:49:56.132Z,78079.05
2019-01-21T08:52:29.986Z,78073.03
2019-01-21T08:55:03.747Z,78078.05
2019-01-21T08:57:43.942Z,78079.05
2019-01-21T09:00:17.755Z,78074.04
2019-01-21T09:02:54.585Z,78077.05
2019-01-21T09:05:37.298Z,78082.05
2019-01-21T09:08:08.105Z,78088.05
2019-01-21T09:10:48.238Z,78088.05
2019-01-21T09:13:16.048Z,78088.05
2019-01-21T09:15:49.645Z,78084.05
2019-01-21T09:18:29.528Z,78094.06
2019-01-21T09:21:03.364Z,78090.05
2019-01-21T09:23:31.176Z,78096.06
2019-01-21T09:26:01.813Z,78100.06
2019-01-21T09:28:29.634Z,78096.06
2019-01-21T09:31:03.788Z,78097.06
2019-01-21T09:33:37.843Z,78098.06
2019-01-21T09:36:08.739Z,78095.06
2019-01-21T09:38:42.349Z,78090.05
2019-01-21T09:41:25.271Z,78091.06
2019-01-21T09:43:56.098Z,78091.06
2019-01-21T09:46:40.539Z,78087.05
2019-01-21T09:49:06.732Z,78086.05
2019-01-21T09:51:32.631Z,78084.05
2019-01-21T09:53:58.534Z,78085.05
2019-01-21T09:56:26.148Z,78072.03
2019-01-21T09:58:52.144Z,78065.03
2019-01-21T10:01:18.047Z,78067.03
2019-01-21T10:03:43.977Z,78064.02
2019-01-21T10:06:09.877Z,78072.03
2019-01-21T10:08:40.691Z,78064.02
2019-01-21T10:11:27.255Z,78076.04
2019-01-21T10:14:01.370Z,78078.05
2019-01-21T10:16:32.179Z,78070.03
2019-01-21T10:19:06.052Z,78068.03
2019-01-21T10:21:33.906Z,78068.03
2019-01-21T10:24:01.784Z,78078.05
2019-01-21T10:26:32.725Z,78073.03
2019-01-21T10:29:19.047Z,78054.02
2019-01-21T10:31:47.049Z,78053.02
2019-01-21T10:34:14.847Z,78056.02
2019-01-21T10:36:49.006Z,78067.03
2019-01-21T10:39:28.830Z,78064.02
2019-01-21T10:42:02.521Z,78065.03
2019-01-21T10:44:33.493Z,78067.03
2019-01-21T10:47:01.345Z,78061.02
2019-01-21T10:49:47.249Z,78064.02
2019-01-21T10:52:15.063Z,78053.02
2019-01-21T10:54:48.485Z,78052.02
2019-01-21T10:57:16.310Z,78052.02
2019-01-21T10:59:52.708Z,78049.01
2019-01-21T11:02:23.620Z,78048.00
2019-01-21T11:04:51.426Z,78046.00
2019-01-21T11:07:25.223Z,78045.00
2019-01-21T11:09:53.026Z,78045.00
2019-01-21T11:12:23.851Z,78043.00
2019-01-21T11:14:51.654Z,78044.00
2019-01-21T11:17:19.477Z,78035.99
2019-01-21T11:20:04.457Z,78039.00
2019-01-21T11:22:32.766Z,78029.98
2019-01-21T11:25:09.955Z,78030.98
2019-01-21T11:27:54.590Z,78023.98
2019-01-21T11:30:22.438Z,78020.98
2019-01-21T11:32:59.680Z,78020.98
2019-01-21T11:35:27.590Z,78017.97
2019-01-21T11:37:58.388Z,78013.97
2019-01-21T11:40:29.288Z,78012.97
2019-01-21T11:43:09.458Z,78017.97
2019-01-21T11:45:40.366Z,78007.96
2019-01-21T11:48:11.210Z,78007.96
2019-01-21T11:50:41.838Z,77993.95
2019-01-21T11:53:09.677Z,77987.94
2019-01-21T11:55:49.519Z,77985.94
2019-01-21T11:58:29.978Z,77983.94
2019-01-21T12:00:57.958Z,77984.94
2019-01-21T12:03:25.768Z,77971.92
2019-01-21T12:05:52.969Z,77979.93
2019-01-21T12:08:23.807Z,77979.93
2019-01-21T12:11:08.424Z,77978.93
2019-01-21T12:13:54.934Z,77975.92
2019-01-21T12:16:28.516Z,77967.92
2019-01-21T12:19:08.066Z,77958.91
2019-01-21T12:21:38.628Z,77959.91
2019-01-21T12:24:17.329Z,77957.91
2019-01-21T12:26:48.014Z,77957.91
2019-01-21T12:29:21.673Z,77955.91
2019-01-21T12:31:52.265Z,77963.91
2019-01-21T12:34:20.114Z,77967.92
2019-01-21T12:36:47.913Z,77955.91
2019-01-21T12:39:15.761Z,77953.90
2019-01-21T12:41:52.964Z,77951.89
2019-01-21T12:44:37.649Z,77947.89
2019-01-21T12:47:14.577Z,77941.89
2019-01-21T12:49:48.434Z,77942.89
2019-01-21T12:52:19.357Z,77942.89
2019-01-21T12:55:05.839Z,77942.89
2019-01-21T12:57:51.621Z,77943.89
2019-01-21T13:00:28.535Z,77945.89
2019-01-21T13:03:02.295Z,77945.89
2019-01-21T13:05:30.103Z,77936.88
2019-01-21T13:08:06.995Z,77937.88
2019-01-21T13:10:50.258Z,77937.88
2019-01-21T13:13:18.048Z,77939.88
2019-01-21T13:15:51.654Z,77930.88
2019-01-21T13:18:22.286Z,77929.88
2019-01-21T13:21:05.485Z,77923.87
2019-01-21T13:23:35.966Z,77920.86
2019-01-21T13:26:12.819Z,77917.86
2019-01-21T13:28:40.621Z,77917.86
2019-01-21T13:31:08.427Z,77910.85
2019-01-21T13:33:36.523Z,77908.84
2019-01-21T13:36:04.329Z,77904.84
2019-01-21T13:38:38.344Z,77900.84
2019-01-21T13:41:12.188Z,77895.84
2019-01-21T13:43:43.324Z,77898.84
2019-01-21T13:46:19.920Z,77892.83
2019-01-21T13:48:47.727Z,77890.83
2019-01-21T13:51:32.506Z,77893.83
2019-01-21T13:54:03.624Z,77893.83
2019-01-21T13:56:31.832Z,77896.84
2019-01-21T13:59:02.649Z,77891.83
2019-01-21T14:01:36.475Z,77888.83
2019-01-21T14:04:04.283Z,77892.83
2019-01-21T14:06:32.153Z,77883.83
2019-01-21T14:09:00.005Z,77886.83
2019-01-21T14:11:36.976Z,77887.83
2019-01-21T14:14:11.185Z,77879.81
2019-01-21T14:16:41.775Z,77874.81
2019-01-21T14:19:12.387Z,77877.81
2019-01-21T14:21:52.355Z,77881.82
2019-01-21T14:24:20.156Z,77876.81
2019-01-21T14:26:53.473Z,77875.81
2019-01-21T14:29:24.528Z,77866.80
2019-01-21T14:32:09.209Z,77867.80
2019-01-21T14:34:46.194Z,77870.81
2019-01-21T14:37:31.058Z,77876.81
2019-01-21T14:40:10.874Z,77871.81
2019-01-21T14:42:41.871Z,77860.80
2019-01-21T14:45:28.050Z,77859.80
2019-01-21T14:48:12.694Z,77857.80
2019-01-21T14:50:40.496Z,77855.79
2019-01-21T14:53:25.162Z,77855.79
2019-01-21T14:55:52.984Z,77850.78
2019-01-21T14:58:23.564Z,77850.78
2019-01-21T15:00:54.615Z,77851.78
2019-01-21T15:03:34.261Z,77847.78
2019-01-21T15:06:07.891Z,77849.78
2019-01-21T15:08:38.479Z,77849.78
2019-01-21T15:11:06.268Z,77843.78
2019-01-21T15:13:40.357Z,77841.77
2019-01-21T15:16:08.300Z,77839.77
2019-01-21T15:18:36.223Z,77839.77
2019-01-21T15:21:06.914Z,77841.77
2019-01-21T15:23:50.214Z,77839.77
2019-01-21T15:26:27.031Z,77837.77
2019-01-21T15:28:54.869Z,77837.77
2019-01-21T15:31:25.667Z,77835.77
2019-01-21T15:33:59.181Z,77832.77
2019-01-21T15:36:29.843Z,77833.77
2019-01-21T15:39:09.822Z,77831.77
2019-01-21T15:41:43.457Z,77826.76
2019-01-21T15:44:11.235Z,77833.77
2019-01-21T15:46:47.935Z,77839.77
2019-01-21T15:49:31.053Z,77842.78
2019-01-21T15:52:01.642Z,77847.78
2019-01-21T15:54:29.441Z,77837.77
2019-01-21T15:56:57.248Z,77836.77
2019-01-21T15:59:28.152Z,77827.77
2019-01-21T16:01:59.098Z,77831.77
2019-01-21T16:04:41.898Z,77831.77
2019-01-21T16:07:10.314Z,77836.77
2019-01-21T16:09:47.207Z,77832.77
2019-01-21T16:12:23.828Z,77834.77
2019-01-21T16:14:54.165Z,77844.78
2019-01-21T16:17:38.671Z,77838.77
2019-01-21T16:20:06.508Z,77838.77
2019-01-21T16:22:52.251Z,77834.77
2019-01-21T16:25:23.081Z,77837.77
2019-01-21T16:27:54.035Z,77839.77
2019-01-21T16:30:27.844Z,77835.77
2019-01-21T16:32:55.818Z,77841.77
2019-01-21T16:35:26.807Z,77841.77
2019-01-21T16:38:00.649Z,77841.77
2019-01-21T16:40:28.482Z,77842.78
2019-01-21T16:42:54.514Z,77844.78
2019-01-21T16:45:20.453Z,77845.78
2019-01-21T16:47:46.367Z,77836.77
2019-01-21T16:50:12.320Z,77845.78
2019-01-21T16:52:38.223Z,77845.78
2019-01-21T16:55:04.738Z,77851.78
2019-01-21T16:57:30.948Z,77846.78
2019-01-21T16:59:56.877Z,77848.78
2019-01-21T17:02:22.785Z,77839.77
2019-01-21T17:04:49.146Z,77829.77
2019-01-21T17:07:17.855Z,77831.77
2019-01-21T17:09:44.230Z,77828.77
2019-01-21T17:12:10.493Z,77826.76
2019-01-21T17:14:36.396Z,77822.75
2019-01-21T17:17:05.704Z,77822.75
2019-01-21T17:19:31.615Z,77821.75
2019-01-21T17:21:57.538Z,77817.75
2019-01-21T17:24:23.451Z,77815.75
2019-01-21T17:26:49.737Z,77811.74
2019-01-21T17:29:18.565Z,77808.73
2019-01-21T17:31:47.519Z,77817.75
2019-01-21T17:34:16.663Z,77808.73
2019-01-21T17:36:42.969Z,77808.73
2019-01-21T17:39:08.990Z,77800.73
2019-01-21T17:41:34.980Z,77800.73
2019-01-21T17:44:00.922Z,77804.73
2019-01-21T17:46:26.816Z,77799.73
2019-01-21T17:48:52.717Z,77801.73
2019-01-21T17:51:18.619Z,77795.73
2019-01-21T17:53:44.512Z,77805.73
2019-01-21T17:56:10.470Z,77803.73
2019-01-21T17:58:36.414Z,77803.73
2019-01-21T18:01:02.721Z,77813.75
2019-01-21T18:03:28.661Z,77816.75
2019-01-21T18:05:55.042Z,77829.77
2019-01-21T18:08:22.379Z,77816.75
2019-01-21T18:10:48.716Z,77815.75
2019-01-21T18:13:14.896Z,77820.75
2019-01-21T18:15:41.190Z,77817.75
2019-01-21T18:18:07.408Z,77820.75
2019-01-21T18:20:35.637Z,77833.77
2019-01-21T18:23:02.029Z,77837.77
2019-01-21T18:25:30.005Z,77825.76
2019-01-21T18:27:58.864Z,77827.77
2019-01-21T18:30:27.777Z,77824.76
2019-01-21T18:32:53.688Z,77824.76
2019-01-21T18:35:19.580Z,77827.77
2019-01-21T18:37:45.467Z,77821.75
2019-01-21T18:40:15.500Z,77824.76
2019-01-21T18:42:41.398Z,77827.77
2019-01-21T18:45:08.613Z,77821.75
2019-01-21T18:47:34.520Z,77821.75
2019-01-21T18:50:00.423Z,77816.75
2019-01-21T18:52:26.710Z,77822.75
2019-01-21T18:54:52.614Z,77823.75
2019-01-21T18:57:18.541Z,77814.75
2019-01-21T18:59:44.452Z,77817.75
2019-01-21T19:02:13.364Z,77823.75
2019-01-21T19:04:39.269Z,77819.75
2019-01-21T19:07:05.176Z,77837.77
2019-01-21T19:09:34.281Z,77838.77
2019-01-21T19:12:00.220Z,77851.78
2019-01-21T19:14:26.112Z,77854.79
2019-01-21T19:16:52.447Z,77847.78
2019-01-21T19:19:23.088Z,77848.78
2019-01-21T19:21:53.579Z,77851.78
2019-01-21T19:24:16.746Z,77845.78
2019-01-21T19:26:42.675Z,77844.78
2019-01-21T19:29:08.598Z,77855.79
2019-01-21T19:31:34.485Z,77875.81
2019-01-21T19:34:03.708Z,77844.78
2019-01-21T19:36:29.613Z,77833.77
2019-01-21T19:38:55.551Z,77832.77
2019-01-21T19:41:24.528Z,77828.77
2019-01-21T19:43:53.923Z,77821.75
2019-01-21T19:46:19.856Z,77819.75
2019-01-21T19:48:46.124Z,77816.75
2019-01-21T19:51:21.377Z,77818.75
2019-01-21T19:53:47.434Z,77811.74
2019-01-21T19:56:13.702Z,77814.75
2019-01-21T19:58:40.321Z,77811.74
2019-01-21T20:01:06.299Z,77809.74
2019-01-21T20:03:35.773Z,77809.74
2019-01-21T20:06:01.911Z,77795.73
2019-01-21T20:08:27.851Z,77799.73
2019-01-21T20:10:53.764Z,77799.73
2019-01-21T20:13:19.669Z,77795.73
2019-01-21T20:15:45.755Z,77790.72
2019-01-21T20:18:11.705Z,77789.72
2019-01-21T20:20:38.313Z,77787.72
2019-01-21T20:23:04.363Z,77789.72
2019-01-21T20:25:30.722Z,77791.72
2019-01-21T20:27:56.670Z,77782.71
2019-01-21T20:30:26.021Z,77787.72
2019-01-21T20:32:51.946Z,77787.72
2019-01-21T20:35:18.257Z,77781.71
2019-01-21T20:37:44.126Z,77785.72
2019-01-21T20:40:11.982Z,77782.71
2019-01-21T20:42:37.887Z,77787.72
2019-01-21T20:45:05.331Z,77785.72
2019-01-21T20:47:31.573Z,77779.71
2019-01-21T20:49:57.513Z,77774.70
2019-01-21T20:52:26.678Z,77775.70
2019-01-21T20:54:55.689Z,77779.71
2019-01-21T20:57:21.630Z,77777.70
2019-01-21T20:59:47.887Z,77778.70
2019-01-21T21:02:13.796Z,77772.70
2019-01-21T21:04:43.184Z,77767.70
2019-01-21T21:07:09.373Z,77772.70
2019-01-21T21:09:35.561Z,77761.69
2019-01-21T21:12:01.731Z,77763.69
2019-01-21T21:14:28.259Z,77762.69
2019-01-21T21:16:57.564Z,77761.69
2019-01-21T21:19:23.760Z,77764.69
2019-01-21T21:21:53.167Z,77768.70
2019-01-21T21:24:22.030Z,77766.69
2019-01-21T21:26:54.049Z,77763.69
2019-01-21T21:29:23.342Z,77779.71
2019-01-21T21:31:49.488Z,77769.70
2019-01-21T21:34:15.882Z,77770.70
2019-01-21T21:36:42.343Z,77773.70
2019-01-21T21:39:11.703Z,77773.70
2019-01-21T21:41:37.942Z,77778.70
2019-01-21T21:44:07.145Z,77775.70
2019-01-21T21:46:33.461Z,77768.70
2019-01-21T21:48:59.802Z,77769.70
2019-01-21T21:51:28.975Z,77764.69
2019-01-21T21:53:55.027Z,77761.69
2019-01-21T21:56:24.167Z,77780.71
2019-01-21T21:58:50.244Z,77773.70
2019-01-21T22:01:16.473Z,77767.70
2019-01-21T22:03:47.985Z,77766.69
2019-01-21T22:06:14.163Z,77758.69
2019-01-21T22:08:40.303Z,77762.69
2019-01-21T22:11:06.485Z,77771.70
2019-01-21T22:13:32.639Z,77764.69
2019-01-21T22:15:58.780Z,77759.69
2019-01-21T22:18:25.345Z,77747.67
2019-01-21T22:20:53.337Z,77751.67
2019-01-21T22:23:19.385Z,77749.67
2019-01-21T22:25:45.302Z,77759.69
2019-01-21T22:28:14.032Z,77755.68
2019-01-21T22:30:40.314Z,77745.67
2019-01-21T22:33:06.222Z,77749.67
2019-01-21T22:35:32.115Z,77741.67
2019-01-21T22:37:58.286Z,77737.66
2019-01-21T22:40:24.239Z,77738.66
2019-01-21T22:42:50.151Z,77747.67
2019-01-21T22:45:16.852Z,77758.69
2019-01-21T22:47:42.835Z,77750.67
2019-01-21T22:50:11.158Z,77758.69
2019-01-21T22:52:41.957Z,77751.67
2019-01-21T22:55:11.136Z,77737.66
2019-01-21T22:57:39.826Z,77731.66
2019-01-21T23:00:13.459Z,77733.66
2019-01-21T23:02:42.757Z,77734.66
2019-01-21T23:05:09.819Z,77728.66
2019-01-21T23:07:35.857Z,77726.66
2019-01-21T23:10:02.162Z,77730.66
2019-01-21T23:12:28.059Z,77726.66
2019-01-21T23:14:54.304Z,77725.66
2019-01-21T23:17:21.994Z,77721.64
2019-01-21T23:19:48.346Z,77728.66
2019-01-21T23:22:14.257Z,77727.66
2019-01-21T23:24:40.459Z,77737.66
2019-01-21T23:27:06.345Z,77737.66
2019-01-21T23:29:32.285Z,77734.66
2019-01-21T23:31:58.187Z,77721.64
2019-01-21T23:34:27.481Z,77720.64
2019-01-21T23:36:53.428Z,77711.64
2019-01-21T23:39:19.357Z,77722.65
2019-01-21T23:41:45.306Z,77726.66
2019-01-21T23:44:11.251Z,77721.64
2019-01-21T23:46:37.142Z,77715.64
2019-01-21T23:49:03.094Z,77712.64
2019-01-21T23:51:29.427Z,77708.63
2019-01-21T23:53:55.365Z,77720.64
2019-01-21T23:56:21.600Z,77727.66
2019-01-21T23:58:51.851Z,77712.64
